Terminal Aerodrome Forecast
Issued by NWS Tampa Bay Area, FL

Home | Current Version | Previous Version | Text Only | Print | Product List | Glossary On
Versions: 1 2 3 4 5 6 7 8 9 10 11 12 13 14 15 16 17 18
811
FTUS42 KTBW 081731
TAFSRQ
TAF
KSRQ 081731Z 0818/0918 36008KT P6SM SCT020 BKN120
     FM090000 34007KT P6SM BKN050 OVC100
     FM090600 03009KT P6SM VCSH BKN030 OVC090=

USA.gov is the U.S. government's official web portal to all federal, state and local government web resources and services.